createdAt,value
2023-01-04T00:04:39.133Z,9.29
2023-01-04T00:09:40.590Z,8.93
2023-01-04T00:14:42.094Z,8.65
2023-01-04T00:19:43.700Z,8.62
2023-01-04T00:24:45.499Z,8.72
2023-01-04T00:29:47.012Z,8.86
2023-01-04T00:34:48.567Z,8.72
2023-01-04T00:39:50.148Z,8.65
2023-01-04T00:44:51.619Z,8.56
2023-01-04T00:49:53.047Z,8.55
2023-01-04T00:54:54.566Z,8.67
2023-01-04T00:59:56.073Z,8.61
2023-01-04T01:04:57.535Z,8.61
2023-01-04T01:09:59.064Z,8.68
2023-01-04T01:15:00.997Z,8.70
2023-01-04T01:20:04.762Z,8.66
2023-01-04T01:25:06.619Z,8.63
2023-01-04T01:30:09.813Z,8.69
2023-01-04T01:35:11.277Z,8.57
2023-01-04T01:40:12.860Z,8.52
2023-01-04T01:45:30.927Z,8.54
2023-01-04T01:50:38.666Z,8.62
2023-01-04T01:55:42.346Z,8.58
2023-01-04T02:00:43.818Z,8.60
2023-01-04T02:05:48.920Z,8.70
2023-01-04T02:10:51.109Z,8.99
2023-01-04T02:16:04.825Z,9.00
2023-01-04T02:21:23.335Z,9.08
2023-01-04T02:26:54.712Z,9.22
2023-01-04T02:32:03.731Z,9.17
2023-01-04T02:37:25.769Z,9.14
2023-01-04T02:42:57.705Z,9.07
2023-01-04T02:48:04.193Z,9.00
2023-01-04T02:53:15.042Z,9.03
2023-01-04T02:58:53.780Z,9.03
2023-01-04T03:04:33.654Z,9.04
2023-01-04T03:09:39.958Z,8.95
2023-01-04T03:14:50.563Z,9.01
2023-01-04T03:19:53.873Z,9.06
2023-01-04T03:24:56.707Z,9.03
2023-01-04T03:30:06.872Z,9.03
2023-01-04T03:35:08.415Z,8.91
2023-01-04T03:40:25.950Z,8.57
2023-01-04T03:45:32.798Z,8.60
2023-01-04T03:50:41.536Z,8.57
2023-01-04T03:55:43.967Z,8.61
2023-01-04T04:00:46.887Z,8.52
2023-01-04T04:05:48.467Z,8.37
2023-01-04T04:10:50.369Z,8.41
2023-01-04T04:15:54.603Z,8.19
2023-01-04T04:20:59.033Z,8.10
2023-01-04T04:26:00.492Z,8.10
2023-01-04T04:31:02.335Z,8.08
2023-01-04T04:36:04.271Z,8.01
2023-01-04T04:41:07.470Z,7.90
2023-01-04T04:46:09.058Z,7.79
2023-01-04T04:51:10.557Z,7.92
2023-01-04T04:56:12.253Z,7.85
2023-01-04T05:01:13.855Z,7.77
2023-01-04T05:06:15.529Z,7.71
2023-01-04T05:11:17.130Z,7.72
2023-01-04T05:16:18.705Z,7.66
2023-01-04T05:21:20.590Z,7.64
2023-01-04T05:26:22.136Z,7.49
2023-01-04T05:31:24.871Z,7.80
2023-01-04T05:36:26.434Z,7.81
2023-01-04T05:41:27.945Z,7.88
2023-01-04T05:46:29.455Z,8.19
2023-01-04T05:51:30.952Z,8.28
2023-01-04T05:56:32.459Z,7.91
2023-01-04T06:01:34.055Z,7.89
2023-01-04T06:06:35.620Z,8.00
2023-01-04T06:11:37.290Z,8.08
2023-01-04T06:16:38.807Z,8.18
2023-01-04T06:21:40.339Z,8.38
2023-01-04T06:26:41.897Z,8.64
2023-01-04T06:31:43.663Z,8.80
2023-01-04T06:36:45.148Z,8.93
2023-01-04T06:41:46.700Z,8.95
2023-01-04T06:46:48.196Z,8.99
2023-01-04T06:51:49.617Z,9.02
2023-01-04T06:56:51.058Z,9.27
2023-01-04T07:01:52.631Z,9.13
2023-01-04T07:06:54.281Z,8.95
2023-01-04T07:11:55.753Z,8.89
2023-01-04T07:16:57.235Z,8.91
2023-01-04T07:21:58.954Z,8.69
2023-01-04T07:27:00.798Z,8.81
2023-01-04T07:32:02.299Z,8.79
2023-01-04T07:37:04.588Z,8.74
2023-01-04T07:42:06.063Z,8.84
2023-01-04T07:47:07.580Z,8.77
2023-01-04T07:52:09.022Z,8.95
2023-01-04T07:57:10.480Z,9.00
2023-01-04T08:02:12.343Z,8.74
2023-01-04T08:07:13.994Z,8.68
2023-01-04T08:12:15.534Z,9.03
2023-01-04T08:17:16.989Z,8.94
2023-01-04T08:22:18.517Z,9.02
2023-01-04T08:27:20.065Z,9.03
2023-01-04T08:32:21.540Z,8.90
2023-01-04T08:37:23.059Z,9.10
2023-01-04T08:42:30.744Z,9.34
2023-01-04T08:47:33.577Z,9.46
2023-01-04T08:52:35.092Z,9.65
2023-01-04T08:57:36.613Z,9.86
2023-01-04T09:02:38.213Z,9.91
2023-01-04T09:07:39.767Z,10.10
2023-01-04T09:12:41.214Z,10.20
2023-01-04T09:18:05.237Z,10.36
2023-01-04T09:23:04.307Z,10.47
2023-01-04T09:28:05.825Z,10.63
2023-01-04T09:33:07.294Z,10.37
2023-01-04T09:38:08.735Z,10.67
2023-01-04T09:43:21.554Z,10.92
2023-01-04T09:48:29.313Z,10.95
2023-01-04T09:53:39.923Z,10.90
2023-01-04T09:58:42.578Z,10.81
2023-01-04T10:04:13.040Z,10.89
2023-01-04T10:09:16.523Z,10.72
2023-01-04T10:14:23.956Z,10.88
2023-01-04T10:25:15.295Z,10.93
2023-01-04T10:30:28.812Z,10.68
2023-01-04T10:35:33.029Z,11.19
2023-01-04T10:40:39.307Z,11.16
2023-01-04T10:45:51.488Z,11.32
2023-01-04T10:51:02.155Z,11.48
2023-01-04T10:56:23.982Z,11.53
2023-01-04T11:01:49.249Z,11.67
2023-01-04T11:07:01.233Z,11.65
2023-01-04T11:12:03.319Z,11.77
2023-01-04T11:17:08.353Z,11.86
2023-01-04T11:22:29.117Z,11.75
2023-01-04T11:27:39.807Z,11.75
2023-01-04T11:33:03.346Z,11.81
2023-01-04T11:38:20.415Z,11.76
2023-01-04T11:43:23.492Z,11.75
2023-01-04T11:48:36.311Z,11.87
2023-01-04T11:53:37.871Z,11.83
2023-01-04T11:58:40.317Z,11.91
2023-01-04T12:03:41.843Z,11.88
2023-01-04T12:08:43.413Z,11.90
2023-01-04T12:13:44.959Z,11.91
2023-01-04T12:18:46.600Z,11.88
2023-01-04T12:23:48.988Z,11.82
2023-01-04T12:29:12.357Z,11.79
2023-01-04T12:34:13.803Z,11.56
2023-01-04T12:39:15.226Z,11.39
2023-01-04T12:44:38.436Z,11.45
2023-01-04T12:49:39.903Z,11.49
2023-01-04T12:54:56.126Z,11.55
2023-01-04T12:59:59.551Z,11.49
2023-01-04T13:10:49.777Z,11.60
2023-01-04T13:16:10.144Z,11.52
2023-01-04T13:21:27.454Z,11.50
2023-01-04T13:26:42.194Z,11.58
2023-01-04T13:31:55.528Z,11.63
2023-01-04T13:37:00.003Z,11.65
2023-01-04T13:42:02.461Z,11.73
2023-01-04T13:47:04.062Z,11.82
2023-01-04T13:58:01.394Z,12.11
2023-01-04T14:03:17.539Z,12.15
2023-01-04T14:08:33.028Z,11.97
2023-01-04T14:13:34.592Z,11.87
2023-01-04T14:18:36.138Z,11.89
2023-01-04T14:23:37.655Z,11.94
2023-01-04T14:28:46.948Z,11.91
2023-01-04T14:33:52.907Z,11.92
2023-01-04T14:38:59.419Z,11.99
2023-01-04T14:44:00.886Z,11.93
2023-01-04T14:49:02.536Z,11.98
2023-01-04T14:54:07.675Z,12.09
2023-01-04T14:59:09.598Z,12.09
2023-01-04T15:04:11.234Z,12.06
2023-01-04T15:09:12.736Z,12.07
2023-01-04T15:14:14.318Z,11.83
2023-01-04T15:19:16.032Z,11.96
2023-01-04T15:24:17.518Z,11.95
2023-01-04T15:29:18.990Z,12.02
2023-01-04T15:34:20.441Z,12.08
2023-01-04T15:39:22.011Z,11.62
2023-01-04T15:44:23.562Z,11.73
2023-01-04T15:49:25.068Z,11.74
2023-01-04T15:54:27.887Z,11.77
2023-01-04T15:59:29.472Z,11.92
2023-01-04T16:04:30.980Z,11.94
2023-01-04T16:09:32.609Z,11.87
2023-01-04T16:14:34.131Z,11.97
2023-01-04T16:19:35.581Z,11.89
2023-01-04T16:25:09.335Z,11.83
2023-01-04T16:29:59.538Z,11.96
2023-01-04T16:35:01.048Z,11.97
2023-01-04T16:40:07.336Z,12.00
2023-01-04T16:45:10.004Z,11.90
2023-01-04T16:50:12.563Z,11.77
2023-01-04T16:55:16.224Z,11.90
2023-01-04T17:00:21.589Z,11.88
2023-01-04T17:05:23.107Z,11.81
2023-01-04T17:10:29.319Z,11.70
2023-01-04T17:15:46.569Z,11.86
2023-01-04T17:21:06.073Z,11.95
2023-01-04T17:26:20.101Z,11.93
2023-01-04T17:31:33.947Z,12.06
2023-01-04T17:36:36.797Z,12.00
2023-01-04T17:41:38.376Z,12.12
2023-01-04T17:46:39.830Z,12.32
2023-01-04T17:51:41.336Z,12.26
2023-01-04T17:56:42.794Z,12.34
2023-01-04T18:01:44.341Z,12.42
2023-01-04T18:06:45.872Z,12.43
2023-01-04T18:11:47.352Z,12.54
2023-01-04T18:16:48.993Z,12.44
2023-01-04T18:21:50.480Z,12.49
2023-01-04T18:32:13.640Z,12.26
2023-01-04T18:37:15.217Z,12.35
2023-01-04T18:42:16.952Z,12.27
2023-01-04T18:47:20.190Z,12.42
2023-01-04T18:52:21.966Z,12.45
2023-01-04T18:57:23.534Z,12.53
2023-01-04T19:02:25.643Z,12.53
2023-01-04T19:07:27.435Z,12.47
2023-01-04T19:12:28.935Z,12.64
2023-01-04T19:17:30.448Z,12.54
2023-01-04T19:22:31.925Z,12.62
2023-01-04T19:27:33.738Z,12.63
2023-01-04T19:32:35.279Z,12.58
2023-01-04T19:37:36.779Z,12.43
2023-01-04T19:42:38.387Z,12.29
2023-01-04T19:47:39.907Z,12.23
2023-01-04T19:52:41.435Z,12.42
2023-01-04T19:57:42.994Z,12.43
2023-01-04T20:02:44.635Z,12.50
2023-01-04T20:07:46.293Z,12.67
2023-01-04T20:12:47.795Z,12.85
2023-01-04T20:17:49.355Z,12.81
2023-01-04T20:22:50.836Z,12.83
2023-01-04T20:27:52.367Z,12.82
2023-01-04T20:32:53.895Z,12.75
2023-01-04T20:37:55.456Z,12.90
2023-01-04T20:42:56.989Z,13.11
2023-01-04T20:47:58.497Z,13.13
2023-01-04T20:53:00.043Z,13.17
2023-01-04T20:58:01.611Z,13.04
2023-01-04T21:03:05.374Z,13.26
2023-01-04T21:08:07.098Z,13.26
2023-01-04T21:13:10.047Z,13.20
2023-01-04T21:18:11.585Z,13.28
2023-01-04T21:23:18.705Z,13.30
2023-01-04T21:28:21.657Z,13.39
2023-01-04T21:33:23.424Z,13.38
2023-01-04T21:38:24.924Z,13.59
2023-01-04T21:43:26.354Z,13.65
2023-01-04T21:48:27.851Z,13.59
2023-01-04T21:53:33.958Z,13.53
2023-01-04T21:58:35.931Z,13.48
2023-01-04T22:03:38.682Z,13.49
2023-01-04T22:08:41.123Z,13.60
2023-01-04T22:13:43.251Z,13.68
2023-01-04T22:18:48.710Z,13.80
2023-01-04T22:23:51.039Z,13.71
2023-01-04T22:28:52.508Z,13.77
2023-01-04T22:33:54.000Z,13.87
2023-01-04T22:38:57.034Z,13.49
2023-01-04T22:44:04.393Z,13.42
2023-01-04T22:49:12.262Z,13.43
2023-01-04T22:54:17.590Z,13.35
2023-01-04T22:59:19.867Z,13.26
2023-01-04T23:04:24.041Z,13.08
2023-01-04T23:09:27.132Z,13.08
2023-01-04T23:14:31.827Z,13.00
2023-01-04T23:19:38.906Z,13.03
2023-01-04T23:24:41.768Z,12.92
2023-01-04T23:42:14.604Z,12.96
2023-01-04T23:47:17.773Z,13.02
2023-01-04T23:52:19.677Z,12.95
2023-01-04T23:57:21.217Z,13.03
